createdAt,value
2022-08-25T00:02:00.475Z,12.27
2022-08-25T00:04:29.737Z,12.10
2022-08-25T00:07:02.099Z,12.20
2022-08-25T00:09:30.612Z,11.82
2022-08-25T00:11:57.892Z,11.30
2022-08-25T00:14:30.007Z,11.90
2022-08-25T00:16:57.524Z,13.02
2022-08-25T00:19:28.780Z,12.70
2022-08-25T00:21:56.403Z,12.95
2022-08-25T00:24:24.592Z,12.52
2022-08-25T00:26:55.176Z,12.70
2022-08-25T00:29:25.940Z,13.48
2022-08-25T00:31:54.598Z,12.25
2022-08-25T00:34:29.419Z,12.38
2022-08-25T00:36:56.759Z,13.02
2022-08-25T00:39:24.505Z,12.20
2022-08-25T00:41:56.692Z,12.55
2022-08-25T00:44:25.385Z,11.68
2022-08-25T00:46:56.383Z,13.27
2022-08-25T00:49:40.802Z,11.98
2022-08-25T00:52:12.193Z,12.63
2022-08-25T00:54:50.789Z,12.75
2022-08-25T00:57:34.136Z,12.90
2022-08-25T01:00:10.790Z,12.63
2022-08-25T01:02:38.579Z,11.93
2022-08-25T01:05:06.508Z,12.55
2022-08-25T01:07:33.922Z,13.38
2022-08-25T01:10:01.338Z,11.90
2022-08-25T01:12:30.535Z,12.70
2022-08-25T01:14:58.280Z,12.60
2022-08-25T01:17:28.208Z,12.60
2022-08-25T01:19:55.943Z,12.57
2022-08-25T01:22:26.825Z,12.70
2022-08-25T01:25:02.212Z,12.70
2022-08-25T01:27:30.601Z,12.82
2022-08-25T01:29:58.161Z,12.50
2022-08-25T01:32:25.268Z,12.23
2022-08-25T01:34:52.328Z,12.93
2022-08-25T01:37:20.769Z,12.38
2022-08-25T01:39:48.168Z,12.82
2022-08-25T01:42:15.132Z,12.77
2022-08-25T01:44:45.492Z,12.23
2022-08-25T01:47:13.896Z,12.85
2022-08-25T01:49:41.207Z,11.85
2022-08-25T01:52:40.475Z,12.50
2022-08-25T01:55:07.849Z,12.00
2022-08-25T01:57:34.837Z,12.52
2022-08-25T02:00:01.858Z,12.70
2022-08-25T02:05:11.686Z,12.18
2022-08-25T02:07:38.775Z,11.35
2022-08-25T02:10:07.591Z,12.63
2022-08-25T02:12:35.357Z,12.43
2022-08-25T02:15:22.448Z,12.18
2022-08-25T02:17:49.466Z,12.75
2022-08-25T02:20:16.757Z,11.65
2022-08-25T02:22:53.053Z,12.40
2022-08-25T02:25:24.013Z,11.43
2022-08-25T02:27:51.258Z,12.70
2022-08-25T02:30:18.486Z,12.25
2022-08-25T02:32:45.444Z,13.32
2022-08-25T02:35:13.848Z,11.68
2022-08-25T02:37:41.085Z,12.00
2022-08-25T02:40:08.974Z,12.15
2022-08-25T02:42:37.323Z,11.52
2022-08-25T02:45:05.044Z,11.10
2022-08-25T02:47:32.115Z,10.40
2022-08-25T02:49:59.626Z,11.13
2022-08-25T02:52:26.686Z,11.75
2022-08-25T02:54:54.105Z,10.75
2022-08-25T02:57:21.725Z,11.80
2022-08-25T02:59:48.842Z,11.25
2022-08-25T03:02:16.893Z,11.43
2022-08-25T03:04:44.247Z,11.98
2022-08-25T03:07:12.719Z,11.82
2022-08-25T03:09:39.803Z,11.85
2022-08-25T03:12:07.054Z,11.55
2022-08-25T03:14:33.946Z,11.93
2022-08-25T03:17:01.063Z,12.68
2022-08-25T03:19:28.062Z,12.18
2022-08-25T03:21:57.073Z,11.63
2022-08-25T03:24:24.346Z,11.68
2022-08-25T03:26:54.339Z,11.52
2022-08-25T03:29:26.717Z,12.95
2022-08-25T03:31:55.673Z,12.25
2022-08-25T03:34:23.195Z,10.85
2022-08-25T03:36:53.532Z,11.77
2022-08-25T03:39:23.559Z,11.68
2022-08-25T03:41:51.814Z,12.05
2022-08-25T03:44:20.655Z,13.07
2022-08-25T03:46:51.380Z,12.30
2022-08-25T03:49:22.867Z,11.88
2022-08-25T03:51:52.817Z,12.07
2022-08-25T03:54:24.033Z,12.27
2022-08-25T03:56:51.414Z,11.63
2022-08-25T03:59:18.992Z,12.57
2022-08-25T04:01:50.226Z,11.93
2022-08-25T04:04:20.559Z,12.82
2022-08-25T04:06:47.523Z,11.48
2022-08-25T04:09:14.523Z,12.45
2022-08-25T04:11:42.512Z,11.77
2022-08-25T04:14:15.803Z,11.60
2022-08-25T04:16:44.355Z,12.18
2022-08-25T04:19:12.078Z,13.52
2022-08-25T04:21:40.818Z,13.05
2022-08-25T04:24:09.949Z,12.98
2022-08-25T04:26:43.925Z,11.65
2022-08-25T04:29:12.670Z,12.13
2022-08-25T04:31:43.123Z,11.77
2022-08-25T04:34:29.664Z,12.48
2022-08-25T04:37:02.014Z,13.00
2022-08-25T04:39:29.563Z,14.10
2022-08-25T04:41:56.655Z,12.65
2022-08-25T04:44:23.762Z,13.88
2022-08-25T04:46:50.806Z,11.85
2022-08-25T04:49:18.226Z,12.05
2022-08-25T04:51:45.791Z,13.20
2022-08-25T04:54:17.039Z,12.55
2022-08-25T04:56:44.239Z,12.02
2022-08-25T04:59:14.164Z,12.80
2022-08-25T05:01:43.289Z,12.13
2022-08-25T05:04:23.442Z,12.65
2022-08-25T05:06:56.406Z,13.82
2022-08-25T05:09:25.227Z,12.88
2022-08-25T05:11:53.558Z,13.00
2022-08-25T05:14:25.573Z,11.65
2022-08-25T05:16:58.161Z,12.40
2022-08-25T05:19:26.576Z,12.15
2022-08-25T05:21:54.097Z,12.68
2022-08-25T05:24:22.382Z,11.30
2022-08-25T05:26:49.921Z,11.27
2022-08-25T05:29:17.571Z,12.82
2022-08-25T05:31:50.169Z,12.65
2022-08-25T05:34:19.565Z,12.23
2022-08-25T05:36:47.297Z,12.10
2022-08-25T05:39:14.814Z,11.40
2022-08-25T05:41:41.932Z,11.68
2022-08-25T05:44:09.041Z,11.80
2022-08-25T05:46:36.071Z,13.35
2022-08-25T05:49:03.071Z,11.02
2022-08-25T05:51:30.177Z,11.23
2022-08-25T05:53:57.104Z,10.85
2022-08-25T05:56:24.146Z,11.07
2022-08-25T05:58:51.396Z,10.15
2022-08-25T06:01:46.547Z,10.18
2022-08-25T06:04:18.094Z,10.70
2022-08-25T06:06:45.176Z,9.15
2022-08-25T06:09:12.148Z,10.13
2022-08-25T06:11:40.708Z,9.65
2022-08-25T06:14:11.359Z,9.50
2022-08-25T06:16:39.443Z,10.18
2022-08-25T06:19:09.080Z,8.85
2022-08-25T06:21:39.238Z,9.43
2022-08-25T06:24:09.228Z,8.05
2022-08-25T06:26:39.250Z,8.00
2022-08-25T06:29:06.243Z,8.43
2022-08-25T06:31:33.464Z,7.68
2022-08-25T06:34:00.537Z,8.88
2022-08-25T06:36:27.472Z,7.80
2022-08-25T06:38:54.398Z,7.43
2022-08-25T06:41:21.375Z,7.20
2022-08-25T06:43:51.830Z,7.95
2022-08-25T06:46:35.665Z,7.15
2022-08-25T06:49:06.319Z,6.90
2022-08-25T06:51:36.269Z,7.47
2022-08-25T06:54:05.821Z,7.05
2022-08-25T06:56:34.153Z,6.25
2022-08-25T06:59:03.323Z,7.00
2022-08-25T07:01:32.283Z,6.65
2022-08-25T07:04:02.391Z,6.70
2022-08-25T07:06:31.929Z,7.70
2022-08-25T07:08:59.452Z,6.95
2022-08-25T07:11:26.847Z,8.20
2022-08-25T07:13:54.169Z,6.43
2022-08-25T07:16:21.757Z,6.35
2022-08-25T07:18:49.619Z,6.63
2022-08-25T07:21:17.499Z,6.25
2022-08-25T07:23:47.155Z,7.50
2022-08-25T07:29:09.588Z,6.40
2022-08-25T07:31:37.514Z,6.78
2022-08-25T07:34:24.153Z,6.63
2022-08-25T07:36:53.806Z,5.93
2022-08-25T07:39:22.128Z,5.50
2022-08-25T07:41:52.442Z,5.93
2022-08-25T07:44:21.782Z,6.07
2022-08-25T07:46:50.347Z,5.95
2022-08-25T07:49:23.570Z,6.10
2022-08-25T07:52:05.437Z,5.87
2022-08-25T07:54:35.559Z,5.82
2022-08-25T07:57:09.053Z,5.78
2022-08-25T07:59:40.937Z,6.30
2022-08-25T08:02:18.965Z,5.93
2022-08-25T08:04:52.454Z,5.70
2022-08-25T08:07:42.110Z,5.93
2022-08-25T08:13:01.046Z,6.30
2022-08-25T08:15:29.609Z,6.32
2022-08-25T08:17:59.350Z,6.68
2022-08-25T08:20:27.317Z,6.00
2022-08-25T08:22:55.280Z,5.80
2022-08-25T08:25:27.590Z,6.20
2022-08-25T08:27:56.015Z,6.60
2022-08-25T08:30:26.210Z,6.18
2022-08-25T08:33:11.434Z,6.40
2022-08-25T08:35:41.221Z,6.28
2022-08-25T08:38:14.747Z,5.95
2022-08-25T08:41:14.640Z,6.25
2022-08-25T08:43:43.879Z,6.22
2022-08-25T08:46:11.397Z,8.73
2022-08-25T08:48:59.148Z,6.18
2022-08-25T08:51:33.539Z,6.50
2022-08-25T08:54:30.001Z,5.55
2022-08-25T08:57:15.550Z,5.40
2022-08-25T08:59:55.001Z,5.55
2022-08-25T09:02:37.923Z,5.28
2022-08-25T09:05:15.091Z,5.53
2022-08-25T09:07:48.536Z,5.28
2022-08-25T09:10:23.488Z,5.80
2022-08-25T09:13:19.863Z,5.50
2022-08-25T09:16:20.644Z,5.72
2022-08-25T09:19:23.424Z,5.68
2022-08-25T09:21:59.817Z,5.90
2022-08-25T09:24:42.358Z,5.78
2022-08-25T09:27:41.774Z,5.60
2022-08-25T09:30:21.514Z,5.15
2022-08-25T09:33:05.274Z,5.45
2022-08-25T09:35:35.660Z,5.15
2022-08-25T09:38:13.285Z,5.35
2022-08-25T09:40:46.171Z,4.95
2022-08-25T09:43:37.666Z,5.45
2022-08-25T09:46:26.866Z,6.55
2022-08-25T09:48:56.929Z,5.47
2022-08-25T09:51:38.166Z,4.70
2022-08-25T09:54:15.828Z,4.20
2022-08-25T09:56:59.478Z,4.80
2022-08-25T09:59:34.901Z,4.80
2022-08-25T10:02:06.461Z,5.20
2022-08-25T10:04:40.044Z,5.00
2022-08-25T10:07:52.055Z,5.30
2022-08-25T10:10:28.727Z,5.07
2022-08-25T10:13:01.932Z,4.85
2022-08-25T10:15:36.134Z,5.20
2022-08-25T10:18:26.301Z,5.28
2022-08-25T10:21:14.954Z,5.22
2022-08-25T10:23:52.843Z,4.80
2022-08-25T10:26:35.243Z,5.20
2022-08-25T10:29:20.475Z,5.88
2022-08-25T10:32:30.902Z,5.65
2022-08-25T10:35:03.497Z,5.03
2022-08-25T10:37:52.682Z,5.22
2022-08-25T10:40:28.872Z,5.38
2022-08-25T10:43:08.559Z,5.55
2022-08-25T10:45:45.863Z,5.57
2022-08-25T10:48:25.642Z,5.43
2022-08-25T10:51:01.269Z,5.60
2022-08-25T10:53:34.171Z,5.70
2022-08-25T10:56:22.630Z,5.80
2022-08-25T10:59:13.489Z,5.32
2022-08-25T11:01:45.292Z,5.40
2022-08-25T11:04:31.337Z,5.68
2022-08-25T11:07:19.715Z,5.47
2022-08-25T11:09:51.147Z,5.28
2022-08-25T11:12:25.801Z,5.80
2022-08-25T11:14:57.878Z,4.68
2022-08-25T11:17:38.899Z,5.88
2022-08-25T11:20:19.953Z,5.80
2022-08-25T11:23:14.913Z,5.97
2022-08-25T11:25:51.452Z,5.70
2022-08-25T11:29:01.189Z,5.47
2022-08-25T11:31:28.863Z,6.32
2022-08-25T11:33:58.165Z,5.82
2022-08-25T11:36:36.939Z,5.30
2022-08-25T11:39:13.012Z,6.00
2022-08-25T11:42:25.916Z,5.50
2022-08-25T11:45:17.591Z,6.20
2022-08-25T11:48:13.172Z,5.80
2022-08-25T11:50:55.720Z,5.72
2022-08-25T11:53:28.950Z,6.15
2022-08-25T11:56:07.679Z,6.00
2022-08-25T11:58:49.865Z,5.68
2022-08-25T12:01:32.750Z,6.00
2022-08-25T12:04:44.879Z,5.63
2022-08-25T12:07:17.482Z,6.40
2022-08-25T12:09:51.513Z,6.13
2022-08-25T12:12:32.449Z,5.90
2022-08-25T12:15:33.604Z,5.90
2022-08-25T12:18:35.506Z,6.00
2022-08-25T12:21:04.070Z,6.10
2022-08-25T12:24:13.945Z,6.05
2022-08-25T12:27:00.904Z,6.10
2022-08-25T12:30:15.591Z,5.75
2022-08-25T12:32:49.183Z,6.70
2022-08-25T12:35:30.311Z,7.22
2022-08-25T12:38:19.149Z,6.22
2022-08-25T12:40:46.020Z,6.10
2022-08-25T12:43:26.779Z,7.03
2022-08-25T12:46:19.911Z,6.45
2022-08-25T12:49:01.951Z,6.88
2022-08-25T12:51:48.459Z,6.47
2022-08-25T12:54:27.840Z,6.88
2022-08-25T12:57:03.148Z,6.78
2022-08-25T12:59:49.935Z,6.75
2022-08-25T13:02:51.594Z,7.20
2022-08-25T13:05:37.649Z,6.45
2022-08-25T13:08:07.583Z,7.00
2022-08-25T13:11:04.934Z,6.63
2022-08-25T13:13:40.601Z,6.60
2022-08-25T13:16:16.282Z,7.00
2022-08-25T13:18:45.261Z,7.20
2022-08-25T13:21:20.236Z,7.25
2022-08-25T13:23:50.801Z,7.13
2022-08-25T13:26:27.024Z,7.07
2022-08-25T13:29:00.189Z,7.15
2022-08-25T13:31:29.832Z,6.82
2022-08-25T13:34:08.243Z,6.97
2022-08-25T13:37:02.275Z,6.70
2022-08-25T13:39:54.874Z,7.22
2022-08-25T13:42:20.495Z,7.78
2022-08-25T13:44:55.221Z,6.07
2022-08-25T13:47:45.153Z,6.97
2022-08-25T13:50:31.327Z,7.72
2022-08-25T13:53:11.558Z,7.47
2022-08-25T13:55:51.720Z,7.15
2022-08-25T13:58:44.283Z,6.88
2022-08-25T14:01:23.307Z,7.68
2022-08-25T14:04:50.477Z,6.82
2022-08-25T14:07:22.580Z,7.75
2022-08-25T14:09:58.475Z,7.72
2022-08-25T14:12:45.030Z,7.80
2022-08-25T14:15:34.037Z,7.43
2022-08-25T14:18:30.849Z,7.80
2022-08-25T14:21:07.671Z,7.20
2022-08-25T14:23:37.237Z,7.53
2022-08-25T14:26:04.797Z,6.97
2022-08-25T14:28:34.173Z,7.38
2022-08-25T14:31:15.339Z,7.60
2022-08-25T14:33:52.026Z,6.88
2022-08-25T14:36:20.967Z,6.75
2022-08-25T14:38:54.537Z,7.57
2022-08-25T14:41:24.078Z,7.90
2022-08-25T14:43:51.151Z,7.50
2022-08-25T14:46:30.816Z,7.60
2022-08-25T14:49:05.099Z,7.63
2022-08-25T14:51:34.046Z,7.53
2022-08-25T14:54:07.543Z,7.85
2022-08-25T14:56:35.951Z,7.25
2022-08-25T14:59:04.912Z,7.80
2022-08-25T15:01:32.025Z,7.43
2022-08-25T15:04:27.708Z,8.60
2022-08-25T15:07:02.836Z,8.85
2022-08-25T15:09:33.574Z,9.05
2022-08-25T15:12:01.079Z,8.80
2022-08-25T15:14:28.903Z,8.20
2022-08-25T15:17:01.604Z,8.20
2022-08-25T15:19:29.440Z,9.38
2022-08-25T15:21:58.148Z,8.25
2022-08-25T15:24:27.959Z,8.52
2022-08-25T15:26:58.734Z,8.90
2022-08-25T15:29:29.933Z,9.18
2022-08-25T15:31:58.939Z,8.85
2022-08-25T15:34:26.403Z,8.23
2022-08-25T15:36:53.686Z,9.05
2022-08-25T15:39:20.830Z,7.97
2022-08-25T15:41:54.499Z,8.82
2022-08-25T15:44:25.079Z,7.85
2022-08-25T15:46:56.383Z,8.30
2022-08-25T15:49:24.182Z,8.18
2022-08-25T15:51:53.064Z,9.88
2022-08-25T15:54:23.605Z,8.90
2022-08-25T15:56:54.219Z,8.23
2022-08-25T15:59:22.528Z,8.32
2022-08-25T16:01:55.512Z,9.43
2022-08-25T16:04:24.408Z,9.52
2022-08-25T16:06:52.136Z,8.95
2022-08-25T16:09:23.008Z,8.73
2022-08-25T16:11:57.172Z,8.10
2022-08-25T16:14:27.840Z,9.93
2022-08-25T16:16:58.005Z,9.43
2022-08-25T16:19:28.151Z,8.27
2022-08-25T16:21:55.217Z,8.77
2022-08-25T16:24:22.357Z,9.10
2022-08-25T16:26:50.346Z,8.85
2022-08-25T16:29:19.988Z,9.82
2022-08-25T16:31:53.218Z,9.38
2022-08-25T16:34:24.799Z,10.70
2022-08-25T16:36:55.802Z,9.77
2022-08-25T16:39:24.011Z,9.73
2022-08-25T16:41:52.332Z,10.40
2022-08-25T16:44:22.511Z,10.73
2022-08-25T16:46:54.397Z,10.93
2022-08-25T16:49:24.249Z,10.23
2022-08-25T16:51:57.169Z,10.60
2022-08-25T16:54:44.488Z,11.48
2022-08-25T16:57:12.000Z,11.45
2022-08-25T16:59:38.998Z,11.15
2022-08-25T17:02:06.762Z,11.18
2022-08-25T17:04:33.882Z,10.60
2022-08-25T17:07:01.872Z,10.93
2022-08-25T17:09:29.709Z,11.02
2022-08-25T17:11:57.417Z,11.43
2022-08-25T17:14:25.173Z,10.82
2022-08-25T17:16:55.265Z,11.32
2022-08-25T17:19:25.053Z,11.63
2022-08-25T17:21:53.871Z,12.10
2022-08-25T17:24:21.743Z,11.40
2022-08-25T17:26:57.010Z,11.85
2022-08-25T17:29:24.722Z,11.55
2022-08-25T17:31:52.025Z,11.63
2022-08-25T17:34:23.157Z,12.38
2022-08-25T17:36:51.999Z,12.02
2022-08-25T17:39:22.250Z,13.13
2022-08-25T17:41:50.745Z,12.43
2022-08-25T17:44:19.435Z,12.20
2022-08-25T17:46:47.997Z,12.85
2022-08-25T17:49:16.567Z,12.45
2022-08-25T17:51:43.621Z,13.13
2022-08-25T17:54:12.374Z,12.68
2022-08-25T17:56:39.933Z,13.43
2022-08-25T17:59:07.618Z,14.32
2022-08-25T18:01:40.418Z,13.60
2022-08-25T18:04:14.267Z,14.93
2022-08-25T18:06:48.655Z,13.85
2022-08-25T18:09:17.496Z,13.38
2022-08-25T18:11:45.698Z,13.27
2022-08-25T18:14:14.474Z,13.50
2022-08-25T18:16:42.145Z,13.25
2022-08-25T18:19:10.949Z,13.40
2022-08-25T18:21:38.916Z,13.85
2022-08-25T18:24:08.048Z,13.52
2022-08-25T18:26:35.813Z,14.25
2022-08-25T18:29:03.244Z,13.35
2022-08-25T18:31:30.998Z,13.52
2022-08-25T18:33:59.417Z,13.45
2022-08-25T18:36:26.390Z,14.50
2022-08-25T18:39:13.644Z,13.75
2022-08-25T18:41:42.684Z,12.98
2022-08-25T18:44:12.479Z,14.93
2022-08-25T18:46:42.841Z,14.43
2022-08-25T18:49:12.548Z,17.10
2022-08-25T18:51:45.685Z,14.57
2022-08-25T18:54:22.370Z,15.32
2022-08-25T18:56:51.972Z,14.93
2022-08-25T18:59:20.202Z,14.15
2022-08-25T19:01:51.787Z,14.43
2022-08-25T19:04:18.854Z,14.18
2022-08-25T19:06:45.906Z,14.65
2022-08-25T19:09:13.600Z,14.18
2022-08-25T19:11:43.388Z,14.70
2022-08-25T19:14:12.659Z,16.08
2022-08-25T19:16:41.592Z,15.13
2022-08-25T19:19:12.606Z,15.82
2022-08-25T19:21:41.341Z,16.17
2022-08-25T19:24:11.167Z,16.58
2022-08-25T19:26:38.955Z,17.35
2022-08-25T19:29:10.642Z,17.83
2022-08-25T19:31:39.625Z,17.83
2022-08-25T19:34:08.871Z,18.98
2022-08-25T19:36:36.174Z,18.98
2022-08-25T19:39:06.940Z,17.75
2022-08-25T19:41:34.354Z,16.98
2022-08-25T19:44:03.112Z,18.50
2022-08-25T19:46:37.479Z,18.65
2022-08-25T19:49:08.810Z,18.95
2022-08-25T19:51:44.072Z,18.83
2022-08-25T19:54:17.740Z,18.73
2022-08-25T19:56:54.855Z,17.83
2022-08-25T19:59:40.618Z,18.13
2022-08-25T20:02:17.219Z,17.77
2022-08-25T20:04:49.587Z,17.45
2022-08-25T20:07:20.230Z,17.48
2022-08-25T20:09:48.372Z,17.33
2022-08-25T20:14:48.979Z,16.95
2022-08-25T20:17:23.726Z,17.73
2022-08-25T20:19:54.405Z,16.25
2022-08-25T20:22:25.840Z,15.88
2022-08-25T20:24:57.538Z,15.80
2022-08-25T20:27:32.315Z,17.60
2022-08-25T20:30:02.623Z,16.13
2022-08-25T20:32:33.867Z,15.98
2022-08-25T20:35:02.066Z,16.00
2022-08-25T20:37:31.193Z,17.73
2022-08-25T20:40:01.073Z,17.80
2022-08-25T20:42:28.265Z,17.25
2022-08-25T20:44:55.340Z,17.58
2022-08-25T20:47:22.790Z,17.30
2022-08-25T20:49:50.311Z,17.00
2022-08-25T20:52:18.525Z,16.35
2022-08-25T20:54:46.912Z,16.98
2022-08-25T20:57:25.716Z,17.10
2022-08-25T20:59:54.895Z,16.23
2022-08-25T21:02:23.287Z,17.17
2022-08-25T21:04:50.774Z,16.45
2022-08-25T21:07:18.682Z,16.90
2022-08-25T21:09:46.709Z,16.13
2022-08-25T21:12:14.551Z,16.85
2022-08-25T21:14:42.201Z,15.57
2022-08-25T21:17:12.779Z,16.90
2022-08-25T21:19:41.667Z,16.63
2022-08-25T21:22:10.667Z,16.52
2022-08-25T21:24:39.201Z,17.38
2022-08-25T21:27:06.550Z,16.88
2022-08-25T21:29:33.804Z,17.10
2022-08-25T21:32:00.869Z,16.48
2022-08-25T21:34:29.032Z,17.02
2022-08-25T21:36:58.178Z,15.70
2022-08-25T21:39:28.677Z,16.45
2022-08-25T21:41:56.639Z,16.63
2022-08-25T21:44:23.686Z,16.98
2022-08-25T21:46:54.071Z,16.75
2022-08-25T21:49:23.410Z,17.80
2022-08-25T21:52:00.505Z,18.75
2022-08-25T21:54:29.180Z,16.90
2022-08-25T21:57:02.748Z,17.13
2022-08-25T21:59:41.148Z,17.83
2022-08-25T22:02:10.689Z,17.23
2022-08-25T22:04:39.541Z,16.42
2022-08-25T22:07:08.188Z,16.55
2022-08-25T22:09:35.794Z,16.40
2022-08-25T22:12:03.926Z,16.85
2022-08-25T22:14:31.219Z,16.55
2022-08-25T22:16:58.243Z,16.33
2022-08-25T22:19:26.942Z,16.42
2022-08-25T22:21:55.239Z,15.98
2022-08-25T22:24:23.025Z,15.68
2022-08-25T22:26:55.689Z,16.15
2022-08-25T22:29:25.131Z,16.95
2022-08-25T22:31:58.677Z,15.65
2022-08-25T22:34:32.451Z,15.45
2022-08-25T22:37:01.825Z,15.48
2022-08-25T22:39:34.293Z,16.55
2022-08-25T22:42:02.967Z,16.20
2022-08-25T22:44:30.321Z,16.38
2022-08-25T22:46:57.311Z,16.23
2022-08-25T22:49:24.415Z,16.50
2022-08-25T22:51:55.090Z,16.55
2022-08-25T22:54:23.005Z,16.23
2022-08-25T22:56:50.943Z,16.60
2022-08-25T22:59:17.976Z,15.70
2022-08-25T23:01:45.670Z,15.18
2022-08-25T23:04:14.846Z,16.38
2022-08-25T23:06:44.882Z,16.35
2022-08-25T23:09:12.013Z,16.48
2022-08-25T23:11:40.057Z,17.52
2022-08-25T23:14:10.367Z,17.25
2022-08-25T23:16:42.307Z,16.23
2022-08-25T23:19:10.980Z,17.80
2022-08-25T23:22:07.942Z,16.98
2022-08-25T23:24:36.152Z,15.90
2022-08-25T23:27:05.360Z,16.50
2022-08-25T23:29:34.414Z,16.58
2022-08-25T23:32:01.547Z,16.88
2022-08-25T23:34:28.729Z,16.00
2022-08-25T23:36:56.744Z,16.48
2022-08-25T23:39:24.124Z,17.17
2022-08-25T23:41:51.868Z,15.98
2022-08-25T23:44:20.674Z,16.40
2022-08-25T23:46:49.323Z,17.30
2022-08-25T23:49:19.011Z,16.85
2022-08-25T23:51:48.689Z,17.30
2022-08-25T23:54:18.129Z,16.30
2022-08-25T23:56:51.835Z,16.23
2022-08-25T23:59:24.336Z,17.27
